createdAt,value
2023-02-18T00:00:36.976Z,17.78
2023-02-18T00:01:37.106Z,17.78
2023-02-18T00:02:37.022Z,17.78
2023-02-18T00:03:36.993Z,17.76
2023-02-18T00:04:36.940Z,17.78
2023-02-18T00:05:36.953Z,17.78
2023-02-18T00:06:36.884Z,17.76
2023-02-18T00:07:36.876Z,17.78
2023-02-18T00:08:36.859Z,17.76
2023-02-18T00:09:36.846Z,17.78
2023-02-18T00:10:36.850Z,17.76
2023-02-18T00:11:37.019Z,17.78
2023-02-18T00:12:36.883Z,17.76
2023-02-18T00:13:36.828Z,17.78
2023-02-18T00:14:36.816Z,17.78
2023-02-18T00:15:36.805Z,17.76
2023-02-18T00:16:36.792Z,17.74
2023-02-18T00:17:36.776Z,17.76
2023-02-18T00:18:36.747Z,17.74
2023-02-18T00:19:36.762Z,17.74
2023-02-18T00:20:36.753Z,17.74
2023-02-18T00:21:36.740Z,17.76
2023-02-18T00:22:36.757Z,17.76
2023-02-18T00:23:36.705Z,17.74
2023-02-18T00:24:36.699Z,17.72
2023-02-18T00:25:36.688Z,17.74
2023-02-18T00:26:36.708Z,17.74
2023-02-18T00:27:36.794Z,17.74
2023-02-18T00:28:36.678Z,17.74
2023-02-18T00:29:36.653Z,17.72
2023-02-18T00:30:36.676Z,17.72
2023-02-18T00:31:36.777Z,17.71
2023-02-18T00:32:36.607Z,17.71
2023-02-18T00:33:36.609Z,17.72
2023-02-18T00:34:36.586Z,17.72
2023-02-18T00:35:36.574Z,17.71
2023-02-18T00:36:36.601Z,17.71
2023-02-18T00:37:36.577Z,17.70
2023-02-18T00:38:36.561Z,17.71
2023-02-18T00:39:36.668Z,17.71
2023-02-18T00:40:36.556Z,17.71
2023-02-18T00:41:36.581Z,17.71
2023-02-18T00:42:36.512Z,17.71
2023-02-18T00:43:36.533Z,17.72
2023-02-18T00:44:36.516Z,17.71
2023-02-18T00:45:36.477Z,17.72
2023-02-18T00:46:36.530Z,17.72
2023-02-18T00:47:36.555Z,17.72
2023-02-18T00:48:36.444Z,17.72
2023-02-18T00:49:36.414Z,17.74
2023-02-18T00:50:36.420Z,17.72
2023-02-18T00:51:36.617Z,17.74
2023-02-18T00:52:36.384Z,17.74
2023-02-18T00:53:36.394Z,17.76
2023-02-18T00:54:36.381Z,17.74
2023-02-18T00:55:36.363Z,17.76
2023-02-18T00:56:36.409Z,17.76
2023-02-18T00:57:36.354Z,17.76
2023-02-18T00:58:36.409Z,17.74
2023-02-18T00:59:36.358Z,17.78
2023-02-18T01:00:36.310Z,17.78
2023-02-18T01:01:36.371Z,17.78
2023-02-18T01:02:36.280Z,17.78
2023-02-18T01:03:36.334Z,17.76
2023-02-18T01:04:36.310Z,17.78
2023-02-18T01:05:36.255Z,17.78
2023-02-18T01:06:36.250Z,17.78
2023-02-18T01:07:36.267Z,17.78
2023-02-18T01:08:36.257Z,17.78
2023-02-18T01:09:36.232Z,17.78
2023-02-18T01:10:36.200Z,17.78
2023-02-18T01:11:36.197Z,17.78
2023-02-18T01:12:36.209Z,17.78
2023-02-18T01:13:36.173Z,17.76
2023-02-18T01:14:36.149Z,17.78
2023-02-18T01:15:36.157Z,17.78
2023-02-18T01:16:36.153Z,17.76
2023-02-18T01:17:36.130Z,17.78
2023-02-18T01:18:36.123Z,17.78
2023-02-18T01:19:36.114Z,17.76
2023-02-18T01:20:36.096Z,17.76
2023-02-18T01:21:36.100Z,17.76
2023-02-18T01:22:36.074Z,17.76
2023-02-18T01:23:36.086Z,17.76
2023-02-18T01:24:36.071Z,17.76
2023-02-18T01:25:36.037Z,17.74
2023-02-18T01:26:36.033Z,17.76
2023-02-18T01:27:36.024Z,17.76
2023-02-18T01:28:36.007Z,17.74
2023-02-18T01:29:36.006Z,17.74
2023-02-18T01:30:36.056Z,17.74
2023-02-18T01:31:36.216Z,17.74
2023-02-18T01:32:35.964Z,17.74
2023-02-18T01:33:35.953Z,17.74
2023-02-18T01:34:35.996Z,17.72
2023-02-18T01:35:35.961Z,17.72
2023-02-18T01:36:35.941Z,17.72
2023-02-18T01:37:35.909Z,17.74
2023-02-18T01:38:35.906Z,17.72
2023-02-18T01:39:35.883Z,17.74
2023-02-18T01:40:35.880Z,17.72
2023-02-18T01:41:35.978Z,17.72
2023-02-18T01:42:35.852Z,17.71
2023-02-18T01:43:35.823Z,17.71
2023-02-18T01:44:35.857Z,17.71
2023-02-18T01:45:35.834Z,17.71
2023-02-18T01:46:35.885Z,17.71
2023-02-18T01:47:35.808Z,17.71
2023-02-18T01:48:37.127Z,17.71
2023-02-18T01:49:35.815Z,17.71
2023-02-18T01:50:35.759Z,17.71
2023-02-18T01:51:35.782Z,17.71
2023-02-18T01:52:35.740Z,17.71
2023-02-18T01:53:35.753Z,17.71
2023-02-18T01:54:35.740Z,17.71
2023-02-18T01:55:35.766Z,17.70
2023-02-18T01:56:35.721Z,17.70
2023-02-18T01:57:35.706Z,17.70
2023-02-18T01:58:35.671Z,17.68
2023-02-18T01:59:35.660Z,17.70
2023-02-18T02:00:35.717Z,17.70
2023-02-18T02:01:35.686Z,17.70
2023-02-18T02:02:35.639Z,17.70
2023-02-18T02:03:36.657Z,17.71
2023-02-18T02:04:35.620Z,17.70
2023-02-18T02:05:35.616Z,17.70
2023-02-18T02:06:35.619Z,17.70
2023-02-18T02:07:35.583Z,17.71
2023-02-18T02:08:35.581Z,17.71
2023-02-18T02:09:35.546Z,17.70
2023-02-18T02:10:35.562Z,17.71
2023-02-18T02:11:35.538Z,17.72
2023-02-18T02:12:35.555Z,17.72
2023-02-18T02:13:35.521Z,17.72
2023-02-18T02:14:35.510Z,17.72
2023-02-18T02:15:35.475Z,17.72
2023-02-18T02:16:35.545Z,17.72
2023-02-18T02:17:35.469Z,17.72
2023-02-18T02:18:35.472Z,17.74
2023-02-18T02:19:35.445Z,17.72
2023-02-18T02:20:35.449Z,17.74
2023-02-18T02:21:35.449Z,17.72
2023-02-18T02:22:35.420Z,17.74
2023-02-18T02:23:35.413Z,17.74
2023-02-18T02:24:35.413Z,17.76
2023-02-18T02:25:35.388Z,17.74
2023-02-18T02:26:35.417Z,17.76
2023-02-18T02:27:35.367Z,17.76
2023-02-18T02:28:35.373Z,17.76
2023-02-18T02:29:35.345Z,17.76
2023-02-18T02:30:35.405Z,17.74
2023-02-18T02:31:35.326Z,17.74
2023-02-18T02:32:35.343Z,17.76
2023-02-18T02:33:35.310Z,17.74
2023-02-18T02:34:35.292Z,17.74
2023-02-18T02:35:35.274Z,17.74
2023-02-18T02:36:35.277Z,17.76
2023-02-18T02:37:35.269Z,17.74
2023-02-18T02:38:35.262Z,17.74
2023-02-18T02:39:35.242Z,17.74
2023-02-18T02:40:35.229Z,17.72
2023-02-18T02:41:35.228Z,17.74
2023-02-18T02:42:35.194Z,17.74
2023-02-18T02:43:35.199Z,17.72
2023-02-18T02:44:35.198Z,17.74
2023-02-18T02:45:35.199Z,17.74
2023-02-18T02:46:35.158Z,17.74
2023-02-18T02:47:35.168Z,17.72
2023-02-18T02:48:35.148Z,17.71
2023-02-18T02:49:35.126Z,17.71
2023-02-18T02:50:35.122Z,17.72
2023-02-18T02:51:35.119Z,17.71
2023-02-18T02:52:35.110Z,17.71
2023-02-18T02:53:35.088Z,17.71
2023-02-18T02:54:35.196Z,17.71
2023-02-18T02:55:35.080Z,17.71
2023-02-18T02:56:35.190Z,17.71
2023-02-18T02:57:35.053Z,17.70
2023-02-18T02:58:35.040Z,17.71
2023-02-18T02:59:35.020Z,17.71
2023-02-18T03:00:35.021Z,17.70
2023-02-18T03:01:34.995Z,17.70
2023-02-18T03:02:35.007Z,17.70
2023-02-18T03:03:34.976Z,17.70
2023-02-18T03:04:34.989Z,17.70
2023-02-18T03:05:34.964Z,17.68
2023-02-18T03:06:34.971Z,17.68
2023-02-18T03:07:35.045Z,17.70
2023-02-18T03:08:34.962Z,17.70
2023-02-18T03:09:34.962Z,17.70
2023-02-18T03:10:34.921Z,17.68
2023-02-18T03:11:34.888Z,17.70
2023-02-18T03:12:35.134Z,17.70
2023-02-18T03:13:34.878Z,17.68
2023-02-18T03:14:34.864Z,17.70
2023-02-18T03:15:34.871Z,17.68
2023-02-18T03:16:34.884Z,17.67
2023-02-18T03:17:34.841Z,17.68
2023-02-18T03:18:34.832Z,17.68
2023-02-18T03:19:34.834Z,17.67
2023-02-18T03:20:34.811Z,17.67
2023-02-18T03:21:34.797Z,17.68
2023-02-18T03:22:34.777Z,17.67
2023-02-18T03:23:34.768Z,17.67
2023-02-18T03:24:34.781Z,17.68
2023-02-18T03:25:34.745Z,17.67
2023-02-18T03:26:34.740Z,17.68
2023-02-18T03:27:34.728Z,17.68
2023-02-18T03:28:34.752Z,17.68
2023-02-18T03:29:34.719Z,17.68
2023-02-18T03:30:34.746Z,17.71
2023-02-18T03:31:34.730Z,17.71
2023-02-18T03:32:34.688Z,17.70
2023-02-18T03:33:34.673Z,17.71
2023-02-18T03:34:34.662Z,17.71
2023-02-18T03:35:34.643Z,17.71
2023-02-18T03:36:34.704Z,17.71
2023-02-18T03:37:34.626Z,17.71
2023-02-18T03:38:34.615Z,17.71
2023-02-18T03:39:34.603Z,17.71
2023-02-18T03:40:34.592Z,17.71
2023-02-18T03:41:34.594Z,17.72
2023-02-18T03:42:34.568Z,17.71
2023-02-18T03:43:34.554Z,17.71
2023-02-18T03:44:34.572Z,17.72
2023-02-18T03:45:34.596Z,17.72
2023-02-18T03:46:34.542Z,17.72
2023-02-18T03:47:34.517Z,17.72
2023-02-18T03:48:34.510Z,17.72
2023-02-18T03:49:34.501Z,17.71
2023-02-18T03:50:34.484Z,17.72
2023-02-18T03:51:34.481Z,17.72
2023-02-18T03:52:34.467Z,17.74
2023-02-18T03:53:34.464Z,17.71
2023-02-18T03:54:41.502Z,17.72
2023-02-18T03:55:34.419Z,17.72
2023-02-18T03:56:34.400Z,17.72
2023-02-18T03:57:34.418Z,17.72
2023-02-18T03:58:34.423Z,17.72
2023-02-18T03:59:34.380Z,17.72
2023-02-18T04:00:34.370Z,17.72
2023-02-18T04:01:34.480Z,17.72
2023-02-18T04:02:34.362Z,17.71
2023-02-18T04:03:34.348Z,17.71
2023-02-18T04:04:34.331Z,17.71
2023-02-18T04:05:34.327Z,17.71
2023-02-18T04:06:34.323Z,17.71
2023-02-18T04:07:34.331Z,17.70
2023-02-18T04:08:34.279Z,17.70
2023-02-18T04:09:34.281Z,17.70
2023-02-18T04:10:34.257Z,17.68
2023-02-18T04:11:34.253Z,17.68
2023-02-18T04:12:34.257Z,17.68
2023-02-18T04:13:34.238Z,17.68
2023-02-18T04:14:34.229Z,17.67
2023-02-18T04:15:34.206Z,17.68
2023-02-18T04:16:34.287Z,17.67
2023-02-18T04:17:34.218Z,17.67
2023-02-18T04:18:34.189Z,17.67
2023-02-18T04:19:34.153Z,17.67
2023-02-18T04:20:34.143Z,17.65
2023-02-18T04:21:34.175Z,17.65
2023-02-18T04:22:34.138Z,17.67
2023-02-18T04:23:34.111Z,17.65
2023-02-18T04:24:34.125Z,17.65
2023-02-18T04:25:34.091Z,17.64
2023-02-18T04:26:34.101Z,17.64
2023-02-18T04:27:34.083Z,17.64
2023-02-18T04:28:34.067Z,17.64
2023-02-18T04:29:34.089Z,17.63
2023-02-18T04:30:34.131Z,17.63
2023-02-18T04:31:34.134Z,17.63
2023-02-18T04:32:34.036Z,17.63
2023-02-18T04:33:34.007Z,17.63
2023-02-18T04:34:34.025Z,17.60
2023-02-18T04:35:33.997Z,17.60
2023-02-18T04:36:33.982Z,17.60
2023-02-18T04:37:34.012Z,17.59
2023-02-18T04:38:33.964Z,17.59
2023-02-18T04:39:33.943Z,17.59
2023-02-18T04:40:33.950Z,17.57
2023-02-18T04:41:33.925Z,17.57
2023-02-18T04:42:33.914Z,17.59
2023-02-18T04:43:33.936Z,17.59
2023-02-18T04:44:33.891Z,17.59
2023-02-18T04:45:33.880Z,17.57
2023-02-18T04:46:33.936Z,17.56
2023-02-18T04:47:33.868Z,17.57
2023-02-18T04:48:33.854Z,17.57
2023-02-18T04:49:33.836Z,17.57
2023-02-18T04:50:33.828Z,17.57
2023-02-18T04:51:33.837Z,17.57
2023-02-18T04:52:33.813Z,17.59
2023-02-18T04:53:33.854Z,17.57
2023-02-18T04:54:33.807Z,17.57
2023-02-18T04:55:33.783Z,17.59
2023-02-18T04:56:33.829Z,17.59
2023-02-18T04:57:33.763Z,17.57
2023-02-18T04:58:33.747Z,17.59
2023-02-18T04:59:33.729Z,17.59
2023-02-18T05:00:33.721Z,17.59
2023-02-18T05:01:33.773Z,17.60
2023-02-18T05:02:33.712Z,17.59
2023-02-18T05:03:33.686Z,17.59
2023-02-18T05:04:33.680Z,17.59
2023-02-18T05:05:33.675Z,17.59
2023-02-18T05:06:33.801Z,17.60
2023-02-18T05:07:33.656Z,17.63
2023-02-18T05:08:33.640Z,17.60
2023-02-18T05:09:33.636Z,17.60
2023-02-18T05:10:33.625Z,17.60
2023-02-18T05:11:33.605Z,17.63
2023-02-18T05:12:33.582Z,17.63
2023-02-18T05:13:33.603Z,17.63
2023-02-18T05:14:33.581Z,17.64
2023-02-18T05:15:33.635Z,17.63
2023-02-18T05:16:33.605Z,17.65
2023-02-18T05:17:33.548Z,17.64
2023-02-18T05:18:33.561Z,17.65
2023-02-18T05:19:33.543Z,17.65
2023-02-18T05:20:33.525Z,17.65
2023-02-18T05:21:33.507Z,17.65
2023-02-18T05:22:33.508Z,17.65
2023-02-18T05:23:33.526Z,17.65
2023-02-18T05:24:33.463Z,17.67
2023-02-18T05:25:33.461Z,17.65
2023-02-18T05:26:33.446Z,17.67
2023-02-18T05:27:33.444Z,17.67
2023-02-18T05:28:33.449Z,17.65
2023-02-18T05:29:33.444Z,17.67
2023-02-18T05:30:33.464Z,17.67
2023-02-18T05:31:33.497Z,17.64
2023-02-18T05:32:33.387Z,17.68
2023-02-18T05:33:33.401Z,17.67
2023-02-18T05:34:33.362Z,17.67
2023-02-18T05:35:33.353Z,17.67
2023-02-18T05:36:33.367Z,17.67
2023-02-18T05:37:33.346Z,17.67
2023-02-18T05:38:33.328Z,17.67
2023-02-18T05:39:33.338Z,17.67
2023-02-18T05:40:33.304Z,17.67
2023-02-18T05:41:33.302Z,17.67
2023-02-18T05:42:33.285Z,17.65
2023-02-18T05:43:33.293Z,17.65
2023-02-18T05:44:33.260Z,17.65
2023-02-18T05:45:33.261Z,17.65
2023-02-18T05:46:33.262Z,17.65
2023-02-18T05:47:33.228Z,17.65
2023-02-18T05:48:33.228Z,17.64
2023-02-18T05:49:33.193Z,17.64
2023-02-18T05:50:33.212Z,17.64
2023-02-18T05:51:33.203Z,17.64
2023-02-18T05:52:33.205Z,17.64
2023-02-18T05:53:33.176Z,17.64
2023-02-18T05:54:33.163Z,17.64
2023-02-18T05:55:33.150Z,17.64
2023-02-18T05:56:33.120Z,17.64
2023-02-18T05:57:33.122Z,17.63
2023-02-18T05:58:33.091Z,17.63
2023-02-18T05:59:33.100Z,17.63
2023-02-18T06:00:33.103Z,17.63
2023-02-18T06:01:33.097Z,17.63
2023-02-18T06:02:33.092Z,17.63
2023-02-18T06:03:33.053Z,17.63
2023-02-18T06:04:33.045Z,17.60
2023-02-18T06:05:33.064Z,17.63
2023-02-18T06:06:33.025Z,17.63
2023-02-18T06:07:33.009Z,17.63
2023-02-18T06:08:33.008Z,17.60
2023-02-18T06:09:32.993Z,17.60
2023-02-18T06:10:32.974Z,17.60
2023-02-18T06:11:32.959Z,17.59
2023-02-18T06:12:32.949Z,17.59
2023-02-18T06:13:32.938Z,17.60
2023-02-18T06:14:32.931Z,17.60
2023-02-18T06:15:32.944Z,17.60
2023-02-18T06:16:33.024Z,17.59
2023-02-18T06:17:32.903Z,17.59
2023-02-18T06:18:32.885Z,17.63
2023-02-18T06:19:32.891Z,17.60
2023-02-18T06:20:32.878Z,17.60
2023-02-18T06:21:32.862Z,17.63
2023-02-18T06:22:32.866Z,17.63
2023-02-18T06:23:32.829Z,17.63
2023-02-18T06:24:32.840Z,17.64
2023-02-18T06:25:32.852Z,17.64
2023-02-18T06:26:32.808Z,17.65
2023-02-18T06:27:32.778Z,17.65
2023-02-18T06:28:32.808Z,17.67
2023-02-18T06:29:32.801Z,17.65
2023-02-18T06:30:32.796Z,17.67
2023-02-18T06:31:32.831Z,17.65
2023-02-18T06:32:32.741Z,17.65
2023-02-18T06:33:32.755Z,17.67
2023-02-18T06:34:32.710Z,17.65
2023-02-18T06:35:32.709Z,17.67
2023-02-18T06:36:32.688Z,17.64
2023-02-18T06:37:32.686Z,17.67
2023-02-18T06:38:32.677Z,17.67
2023-02-18T06:39:32.685Z,17.67
2023-02-18T06:40:32.631Z,17.67
2023-02-18T06:41:32.630Z,17.67
2023-02-18T06:42:32.620Z,17.67
2023-02-18T06:43:32.610Z,17.67
2023-02-18T06:44:32.589Z,17.67
2023-02-18T06:45:32.690Z,17.68
2023-02-18T06:46:32.743Z,17.67
2023-02-18T06:47:32.560Z,17.67
2023-02-18T06:48:32.606Z,17.67
2023-02-18T06:49:32.560Z,17.67
2023-02-18T06:50:32.533Z,17.65
2023-02-18T06:51:32.571Z,17.65
2023-02-18T06:52:32.515Z,17.65
2023-02-18T06:53:32.503Z,17.65
2023-02-18T06:54:32.492Z,17.65
2023-02-18T06:55:32.477Z,17.64
2023-02-18T06:56:32.489Z,17.64
2023-02-18T06:57:32.448Z,17.64
2023-02-18T06:58:32.458Z,17.63
2023-02-18T06:59:32.443Z,17.63
2023-02-18T07:00:32.563Z,17.63
2023-02-18T07:01:32.437Z,17.63
2023-02-18T07:02:32.397Z,17.60
2023-02-18T07:03:32.605Z,17.60
2023-02-18T07:04:32.377Z,17.60
2023-02-18T07:05:32.368Z,17.59
2023-02-18T07:06:32.356Z,17.59
2023-02-18T07:07:32.377Z,17.59
2023-02-18T07:08:32.341Z,17.59
2023-02-18T07:09:32.318Z,17.59
2023-02-18T07:10:32.297Z,17.59
2023-02-18T07:11:32.331Z,17.60
2023-02-18T07:12:32.300Z,17.59
2023-02-18T07:13:32.278Z,17.59
2023-02-18T07:14:32.291Z,17.59
2023-02-18T07:15:32.261Z,17.57
2023-02-18T07:16:32.294Z,17.59
2023-02-18T07:17:32.278Z,17.57
2023-02-18T07:18:32.222Z,17.57
2023-02-18T07:19:32.225Z,17.57
2023-02-18T07:20:32.204Z,17.59
2023-02-18T07:21:32.217Z,17.60
2023-02-18T07:22:32.183Z,17.60
2023-02-18T07:23:32.213Z,17.57
2023-02-18T07:24:32.188Z,17.59
2023-02-18T07:25:32.160Z,17.60
2023-02-18T07:26:32.150Z,17.60
2023-02-18T07:27:32.139Z,17.60
2023-02-18T07:28:32.116Z,17.60
2023-02-18T07:29:32.114Z,17.59
2023-02-18T07:30:32.168Z,17.59
2023-02-18T07:31:32.209Z,17.60
2023-02-18T07:32:32.090Z,17.63
2023-02-18T07:33:32.102Z,17.63
2023-02-18T07:34:32.066Z,17.60
2023-02-18T07:35:32.057Z,17.60
2023-02-18T07:36:32.037Z,17.60
2023-02-18T07:37:32.060Z,17.63
2023-02-18T07:38:32.010Z,17.59
2023-02-18T07:39:32.021Z,17.60
2023-02-18T07:40:32.031Z,17.60
2023-02-18T07:41:31.988Z,17.63
2023-02-18T07:42:31.991Z,17.63
2023-02-18T07:43:31.972Z,17.64
2023-02-18T07:44:31.983Z,17.65
2023-02-18T07:45:31.962Z,17.65
2023-02-18T07:46:31.948Z,17.67
2023-02-18T07:47:31.930Z,17.67
2023-02-18T07:48:31.894Z,17.67
2023-02-18T07:49:31.881Z,17.67
2023-02-18T07:50:31.882Z,17.67
2023-02-18T07:51:31.876Z,17.67
2023-02-18T07:52:31.886Z,17.68
2023-02-18T07:53:31.887Z,17.68
2023-02-18T07:54:31.832Z,17.68
2023-02-18T07:55:31.836Z,17.68
2023-02-18T07:56:31.842Z,17.68
2023-02-18T07:57:31.802Z,17.70
2023-02-18T07:58:31.790Z,17.70
2023-02-18T07:59:31.784Z,17.70
2023-02-18T08:00:31.802Z,17.70
2023-02-18T08:01:31.770Z,17.68
2023-02-18T08:02:31.782Z,17.70
2023-02-18T08:03:31.862Z,17.70
2023-02-18T08:04:31.906Z,17.70
2023-02-18T08:05:31.702Z,17.70
2023-02-18T08:06:31.721Z,17.70
2023-02-18T08:07:31.717Z,17.70
2023-02-18T08:08:31.675Z,17.70
2023-02-18T08:09:31.690Z,17.68
2023-02-18T08:10:31.698Z,17.68
2023-02-18T08:11:31.657Z,17.68
2023-02-18T08:12:31.656Z,17.67
2023-02-18T08:13:31.646Z,17.67
2023-02-18T08:14:31.636Z,17.67
2023-02-18T08:15:31.621Z,17.68
2023-02-18T08:16:31.612Z,17.68
2023-02-18T08:17:31.612Z,17.67
2023-02-18T08:18:31.596Z,17.65
2023-02-18T08:19:31.587Z,17.65
2023-02-18T08:20:31.559Z,17.64
2023-02-18T08:21:31.574Z,17.64
2023-02-18T08:22:31.615Z,17.64
2023-02-18T08:23:31.519Z,17.64
2023-02-18T08:24:31.538Z,17.65
2023-02-18T08:25:31.513Z,17.64
2023-02-18T08:26:31.499Z,17.63
2023-02-18T08:27:31.489Z,17.64
2023-02-18T08:28:31.479Z,17.63
2023-02-18T08:29:31.524Z,17.64
2023-02-18T08:30:31.561Z,17.64
2023-02-18T08:31:31.576Z,17.60
2023-02-18T08:32:31.428Z,17.63
2023-02-18T08:33:31.487Z,17.63
2023-02-18T08:34:31.408Z,17.60
2023-02-18T08:35:31.407Z,17.63
2023-02-18T08:36:31.403Z,17.63
2023-02-18T08:37:31.401Z,17.63
2023-02-18T08:38:32.441Z,17.63
2023-02-18T08:39:31.367Z,17.63
2023-02-18T08:40:31.362Z,17.63
2023-02-18T08:41:31.343Z,17.60
2023-02-18T08:42:31.344Z,17.63
2023-02-18T08:43:31.337Z,17.60
2023-02-18T08:44:31.380Z,17.63
2023-02-18T08:45:31.311Z,17.59
2023-02-18T08:46:34.852Z,17.60
2023-02-18T08:48:17.371Z,17.60
2023-02-18T08:48:32.280Z,17.59
2023-02-18T08:49:31.254Z,17.59
2023-02-18T08:50:31.251Z,17.60
2023-02-18T08:51:31.220Z,17.59
2023-02-18T08:52:31.233Z,17.57
2023-02-18T08:53:31.197Z,17.59
2023-02-18T08:54:31.207Z,17.59
2023-02-18T08:55:31.209Z,17.57
2023-02-18T08:56:31.214Z,17.57
2023-02-18T08:57:31.168Z,17.57
2023-02-18T08:58:31.164Z,17.59
2023-02-18T08:59:31.177Z,17.57
2023-02-18T09:00:31.159Z,17.57
2023-02-18T09:01:31.176Z,17.57
2023-02-18T09:02:31.154Z,17.54
2023-02-18T09:03:31.108Z,17.56
2023-02-18T09:04:31.114Z,17.57
2023-02-18T09:05:31.123Z,17.57
2023-02-18T09:06:31.086Z,17.56
2023-02-18T09:07:31.059Z,17.57
2023-02-18T09:08:31.049Z,17.57
2023-02-18T09:09:31.073Z,17.57
2023-02-18T09:10:31.047Z,17.59
2023-02-18T09:11:31.018Z,17.59
2023-02-18T09:12:31.002Z,17.56
2023-02-18T09:13:30.983Z,17.57
2023-02-18T09:14:30.985Z,17.57
2023-02-18T09:15:31.005Z,17.57
2023-02-18T09:16:31.009Z,17.57
2023-02-18T09:17:30.963Z,17.57
2023-02-18T09:18:30.966Z,17.59
2023-02-18T09:19:30.985Z,17.57
2023-02-18T09:20:30.922Z,17.57
2023-02-18T09:21:30.922Z,17.57
2023-02-18T09:22:30.943Z,17.57
2023-02-18T09:23:30.886Z,17.57
2023-02-18T09:24:30.871Z,17.59
2023-02-18T09:25:30.868Z,17.57
2023-02-18T09:26:30.836Z,17.57
2023-02-18T09:27:30.866Z,17.57
2023-02-18T09:28:30.860Z,17.59
2023-02-18T09:29:30.822Z,17.59
2023-02-18T09:30:30.844Z,17.59
2023-02-18T09:31:30.876Z,17.59
2023-02-18T09:32:35.076Z,17.60
2023-02-18T09:33:30.783Z,17.60
2023-02-18T09:34:30.841Z,17.60
2023-02-18T09:35:30.760Z,17.60
2023-02-18T09:36:30.751Z,17.63
2023-02-18T09:37:30.745Z,17.63
2023-02-18T09:38:30.737Z,17.63
2023-02-18T09:39:30.750Z,17.63
2023-02-18T09:40:30.715Z,17.63
2023-02-18T09:41:30.706Z,17.63
2023-02-18T09:42:30.681Z,17.63
2023-02-18T09:43:30.684Z,17.63
2023-02-18T09:44:30.720Z,17.64
2023-02-18T09:45:30.664Z,17.63
2023-02-18T09:46:30.694Z,17.63
2023-02-18T09:47:30.622Z,17.63
2023-02-18T09:48:30.639Z,17.63
2023-02-18T09:49:30.584Z,17.64
2023-02-18T09:50:30.607Z,17.65
2023-02-18T09:51:30.582Z,17.64
2023-02-18T09:52:30.567Z,17.64
2023-02-18T09:53:30.566Z,17.65
2023-02-18T09:54:30.557Z,17.64
2023-02-18T09:55:37.559Z,17.63
2023-02-18T09:56:30.557Z,17.64
2023-02-18T09:57:30.512Z,17.64
2023-02-18T09:58:30.526Z,17.64
2023-02-18T09:59:30.504Z,17.64
2023-02-18T10:00:30.520Z,17.64
2023-02-18T10:01:30.506Z,17.65
2023-02-18T10:02:30.478Z,17.63
2023-02-18T10:03:30.455Z,17.63
2023-02-18T10:04:30.482Z,17.63
2023-02-18T10:05:30.462Z,17.63
2023-02-18T10:06:30.523Z,17.63
2023-02-18T10:07:30.414Z,17.64
2023-02-18T10:08:30.404Z,17.63
2023-02-18T10:09:30.422Z,17.64
2023-02-18T10:10:30.385Z,17.64
2023-02-18T10:11:30.404Z,17.64
2023-02-18T10:12:30.369Z,17.64
2023-02-18T10:13:30.346Z,17.64
2023-02-18T10:14:30.350Z,17.64
2023-02-18T10:15:30.340Z,17.63
2023-02-18T10:16:30.363Z,17.64
2023-02-18T10:17:30.319Z,17.63
2023-02-18T10:19:30.295Z,17.63
2023-02-18T10:20:30.329Z,17.63
2023-02-18T10:21:30.272Z,17.60
2023-02-18T10:22:30.274Z,17.60
2023-02-18T10:23:30.229Z,17.60
2023-02-18T10:24:30.234Z,17.60
2023-02-18T10:25:30.224Z,17.59
2023-02-18T10:26:30.203Z,17.57
2023-02-18T10:27:30.189Z,17.59
2023-02-18T10:28:30.201Z,17.59
2023-02-18T10:29:30.190Z,17.60
2023-02-18T10:30:30.190Z,17.60
2023-02-18T10:31:30.244Z,17.60
2023-02-18T10:32:30.147Z,17.59
2023-02-18T10:33:30.138Z,17.63
2023-02-18T10:34:30.142Z,17.63
2023-02-18T10:35:30.133Z,17.63
2023-02-18T10:36:30.099Z,17.64
2023-02-18T10:37:30.083Z,17.64
2023-02-18T10:38:30.068Z,17.63
2023-02-18T10:39:30.057Z,17.63
2023-02-18T10:40:30.054Z,17.63
2023-02-18T10:41:30.074Z,17.63
2023-02-18T10:42:30.053Z,17.64
2023-02-18T10:43:30.056Z,17.64
2023-02-18T10:44:30.007Z,17.64
2023-02-18T10:45:30.013Z,17.64
2023-02-18T10:46:30.010Z,17.64
2023-02-18T10:47:29.976Z,17.64
2023-02-18T10:48:29.992Z,17.64
2023-02-18T10:49:29.952Z,17.65
2023-02-18T10:50:29.971Z,17.64
2023-02-18T10:51:29.951Z,17.65
2023-02-18T10:52:29.926Z,17.65
2023-02-18T10:53:29.907Z,17.67
2023-02-18T10:54:29.922Z,17.65
2023-02-18T10:55:29.886Z,17.65
2023-02-18T10:56:29.913Z,17.64
2023-02-18T10:57:29.867Z,17.64
2023-02-18T10:58:29.869Z,17.64
2023-02-18T10:59:29.855Z,17.64
2023-02-18T11:00:29.859Z,17.64
2023-02-18T11:01:29.913Z,17.64
2023-02-18T11:02:29.852Z,17.64
2023-02-18T11:03:29.819Z,17.63
2023-02-18T11:04:29.848Z,17.63
2023-02-18T11:05:29.792Z,17.60
2023-02-18T11:06:29.775Z,17.60
2023-02-18T11:07:29.761Z,17.63
2023-02-18T11:08:29.772Z,17.60
2023-02-18T11:09:29.743Z,17.60
2023-02-18T11:10:29.728Z,17.60
2023-02-18T11:11:29.718Z,17.60
2023-02-18T11:12:29.739Z,17.59
2023-02-18T11:13:29.713Z,17.59
2023-02-18T11:14:29.706Z,17.59
2023-02-18T11:15:29.667Z,17.59
2023-02-18T11:16:29.778Z,17.59
2023-02-18T11:17:29.653Z,17.59
2023-02-18T11:18:29.634Z,17.59
2023-02-18T11:19:29.635Z,17.57
2023-02-18T11:20:29.633Z,17.56
2023-02-18T11:21:29.687Z,17.57
2023-02-18T11:22:29.604Z,17.56
2023-02-18T11:23:29.600Z,17.56
2023-02-18T11:24:29.580Z,17.56
2023-02-18T11:25:29.611Z,17.56
2023-02-18T11:26:29.581Z,17.54
2023-02-18T11:27:29.554Z,17.52
2023-02-18T11:28:29.562Z,17.52
2023-02-18T11:29:29.522Z,17.52
2023-02-18T11:30:29.598Z,17.52
2023-02-18T11:31:29.646Z,17.52
2023-02-18T11:32:29.481Z,17.51
2023-02-18T11:33:29.486Z,17.52
2023-02-18T11:34:29.470Z,17.51
2023-02-18T11:35:29.449Z,17.51
2023-02-18T11:36:29.583Z,17.51
2023-02-18T11:37:29.463Z,17.51
2023-02-18T11:38:29.445Z,17.48
2023-02-18T11:39:29.409Z,17.48
2023-02-18T11:40:29.412Z,17.49
2023-02-18T11:41:29.392Z,17.49
2023-02-18T11:42:29.388Z,17.49
2023-02-18T11:43:29.380Z,17.49
2023-02-18T11:44:29.359Z,17.49
2023-02-18T11:45:29.362Z,17.49
2023-02-18T11:46:29.372Z,17.48
2023-02-18T11:47:29.361Z,17.49
2023-02-18T11:48:29.363Z,17.51
2023-02-18T11:49:29.335Z,17.49
2023-02-18T11:50:29.302Z,17.49
2023-02-18T11:51:29.293Z,17.49
2023-02-18T11:52:29.274Z,17.49
2023-02-18T11:53:29.274Z,17.49
2023-02-18T11:54:29.275Z,17.49
2023-02-18T11:55:29.253Z,17.52
2023-02-18T11:56:29.230Z,17.52
2023-02-18T11:57:29.210Z,17.54
2023-02-18T11:58:29.225Z,17.54
2023-02-18T11:59:29.205Z,17.54
2023-02-18T12:00:29.214Z,17.54
2023-02-18T12:01:29.204Z,17.54
2023-02-18T12:02:29.185Z,17.54
2023-02-18T12:03:29.195Z,17.56
2023-02-18T12:04:29.160Z,17.57
2023-02-18T12:05:29.184Z,17.57
2023-02-18T12:06:29.122Z,17.59
2023-02-18T12:07:29.138Z,17.59
2023-02-18T12:08:29.116Z,17.59
2023-02-18T12:09:29.122Z,17.60
2023-02-18T12:10:29.092Z,17.63
2023-02-18T12:11:29.091Z,17.63
2023-02-18T12:12:29.074Z,17.63
2023-02-18T12:13:29.058Z,17.63
2023-02-18T12:14:29.054Z,17.64
2023-02-18T12:15:29.064Z,17.64
2023-02-18T12:16:29.107Z,17.64
2023-02-18T12:17:29.022Z,17.67
2023-02-18T12:18:29.017Z,17.64
2023-02-18T12:19:29.018Z,17.65
2023-02-18T12:20:29.006Z,17.65
2023-02-18T12:21:28.993Z,17.65
2023-02-18T12:22:28.954Z,17.65
2023-02-18T12:23:28.935Z,17.64
2023-02-18T12:24:28.935Z,17.65
2023-02-18T12:25:28.922Z,17.65
2023-02-18T12:26:28.935Z,17.65
2023-02-18T12:27:28.937Z,17.64
2023-02-18T12:28:28.893Z,17.65
2023-02-18T12:29:28.875Z,17.64
2023-02-18T12:30:28.915Z,17.64
2023-02-18T12:31:28.930Z,17.64
2023-02-18T12:32:28.864Z,17.64
2023-02-18T12:33:28.841Z,17.63
2023-02-18T12:34:28.842Z,17.63
2023-02-18T12:35:28.817Z,17.63
2023-02-18T12:36:28.799Z,17.64
2023-02-18T12:37:28.818Z,17.64
2023-02-18T12:38:28.789Z,17.64
2023-02-18T12:39:28.773Z,17.64
2023-02-18T12:40:28.780Z,17.64
2023-02-18T12:41:28.759Z,17.60
2023-02-18T12:42:28.753Z,17.60
2023-02-18T12:43:28.721Z,17.63
2023-02-18T12:44:28.709Z,17.60
2023-02-18T12:45:28.704Z,17.60
2023-02-18T12:46:28.862Z,17.59
2023-02-18T12:47:28.696Z,17.59
2023-02-18T12:48:28.685Z,17.59
2023-02-18T12:49:28.672Z,17.59
2023-02-18T12:50:28.668Z,17.59
2023-02-18T12:51:30.407Z,17.56
2023-02-18T12:52:28.640Z,17.57
2023-02-18T12:53:28.633Z,17.57